Time;durP1;ratioP1;P1;durP2;ratioP2;P2;SDS_P1;SDS_P2;PMS_P1;PMS_P2;Temp;Humidity;BMP_temperature;BMP_pressure;BME280_temperature;BME280_humidity;BME280_pressure;Samples;Min_cycle;Max_cycle;Signal;HPM_P1;HPM_P2
2024/01/17 00:01:21;;;;;;;;;29.25;24.25;;;;;2.02;61.46;99682.97;4995457;28;45466;-40
2024/01/17 00:03:46;;;;;;;;;24.50;23.50;;;;;2.05;61.09;99687.97;4996018;28;45396;-39
2024/01/17 00:06:12;;;;;;;;;29.25;24.50;;;;;1.99;61.29;99678.81;4995867;28;45180;-40
2024/01/17 00:08:38;;;;;;;;;26.50;21.25;;;;;1.98;61.42;99675.34;4995789;28;45446;-37
2024/01/17 00:11:03;;;;;;;;;24.75;19.75;;;;;2.02;59.93;99675.09;4995708;28;45538;-39
2024/01/17 00:13:29;;;;;;;;;35.00;28.25;;;;;2.06;61.56;99672.09;4995688;28;45310;-40
2024/01/17 00:15:54;;;;;;;;;33.50;26.25;;;;;2.05;61.79;99669.63;4995374;28;45441;-41
2024/01/17 00:18:19;;;;;;;;;49.00;25.00;;;;;1.97;62.21;99662.31;4994526;28;45530;-40
2024/01/17 00:20:45;;;;;;;;;33.25;28.00;;;;;2.08;61.60;99659.72;4994176;28;45407;-40
2024/01/17 00:23:10;;;;;;;;;67.75;52.25;;;;;2.16;62.22;99653.88;4995371;28;45374;-40
2024/01/17 00:25:35;;;;;;;;;29.00;23.50;;;;;2.19;62.01;99644.00;4995612;28;45275;-40
2024/01/17 00:28:01;;;;;;;;;33.50;25.75;;;;;2.27;61.68;99645.16;4995106;28;46017;-41
2024/01/17 00:30:26;;;;;;;;;29.75;21.50;;;;;2.30;61.82;99647.53;4995276;28;45462;-39
2024/01/17 00:32:51;;;;;;;;;30.75;27.25;;;;;2.28;62.36;99636.34;4995441;28;45404;-40
2024/01/17 00:35:17;;;;;;;;;35.00;24.50;;;;;2.28;62.31;99628.47;4995599;28;45502;-38
2024/01/17 00:37:43;;;;;;;;;24.75;21.50;;;;;2.24;62.86;99618.22;4993740;28;45688;-41
2024/01/17 00:40:09;;;;;;;;;39.00;24.50;;;;;2.28;62.74;99623.22;5010272;28;45844;-40
2024/01/17 00:42:34;;;;;;;;;32.75;25.25;;;;;2.31;62.15;99609.84;4995179;28;45343;-40
2024/01/17 00:44:59;;;;;;;;;33.25;24.75;;;;;2.36;62.56;99610.31;4995322;28;45397;-38
2024/01/17 00:47:25;;;;;;;;;38.00;26.50;;;;;2.35;62.71;99596.34;4994516;28;46250;-38
2024/01/17 00:49:50;;;;;;;;;23.75;23.00;;;;;2.28;62.92;99591.75;4994583;28;45246;-39
2024/01/17 00:52:16;;;;;;;;;29.25;22.25;;;;;2.33;61.96;99600.06;4995142;28;45368;-40
2024/01/17 00:54:41;;;;;;;;;27.50;23.75;;;;;2.34;63.35;99588.63;4995047;28;45334;-39
2024/01/17 00:57:06;;;;;;;;;28.75;22.75;;;;;2.31;63.18;99586.22;4995005;28;46201;-40
2024/01/17 00:59:32;;;;;;;;;25.25;17.75;;;;;2.29;62.76;99586.38;4994695;28;45458;-38
2024/01/17 01:01:58;;;;;;;;;32.50;28.00;;;;;2.23;62.91;99581.59;4994741;28;45410;-38
2024/01/17 01:04:23;;;;;;;;;29.25;27.25;;;;;2.20;64.54;99566.94;4995128;28;45392;-39
2024/01/17 01:06:48;;;;;;;;;33.25;28.25;;;;;2.16;64.40;99562.88;4994320;28;52517;-39
2024/01/17 01:09:13;;;;;;;;;31.00;23.00;;;;;2.16;65.67;99546.31;4993490;28;45332;-38
2024/01/17 01:11:39;;;;;;;;;27.75;26.25;;;;;2.17;66.19;99547.97;4994857;28;45284;-38
2024/01/17 01:14:04;;;;;;;;;39.75;30.75;;;;;2.16;65.36;99538.44;4994610;28;45322;-40
2024/01/17 01:16:29;;;;;;;;;27.75;21.25;;;;;2.20;65.13;99537.25;4993104;28;46574;-40
2024/01/17 01:18:55;;;;;;;;;32.00;24.75;;;;;2.15;65.76;99529.75;4994584;28;45416;-40
2024/01/17 01:21:20;;;;;;;;;38.50;29.50;;;;;2.13;65.73;99525.56;4994913;28;45408;-39
2024/01/17 01:23:46;;;;;;;;;44.25;30.25;;;;;2.09;66.08;99519.72;4994820;28;45522;-39
2024/01/17 01:26:13;;;;;;;;;41.50;29.75;;;;;2.08;66.28;99512.81;4994440;28;45420;-39
2024/01/17 01:28:39;;;;;;;;;43.50;28.75;;;;;2.04;66.55;99505.31;4994529;28;45431;-39
2024/01/17 01:31:04;;;;;;;;;34.50;26.75;;;;;2.03;66.52;99487.94;4994408;28;45412;-39
2024/01/17 01:33:29;;;;;;;;;44.25;32.25;;;;;1.97;66.74;99478.75;4994583;28;45311;-38
2024/01/17 01:35:55;;;;;;;;;31.25;26.00;;;;;2.02;66.78;99486.25;4994124;28;46013;-38
2024/01/17 01:38:20;;;;;;;;;41.25;30.25;;;;;1.99;67.57;99480.28;4994324;28;45443;-38
2024/01/17 01:40:45;;;;;;;;;30.50;28.25;;;;;1.97;67.39;99470.88;4994612;28;45417;-38
2024/01/17 01:43:17;;;;;;;;;35.25;31.00;;;;;1.98;68.10;99464.66;4994522;28;45345;-39
2024/01/17 01:45:43;;;;;;;;;26.75;25.50;;;;;2.03;68.25;99452.03;5078960;27;45971;-39
2024/01/17 01:48:08;;;;;;;;;31.75;24.25;;;;;2.03;68.61;99451.22;4993891;28;45400;-39
2024/01/17 01:50:33;;;;;;;;;36.50;29.00;;;;;2.03;68.61;99443.34;4992961;28;45288;-39
2024/01/17 01:52:59;;;;;;;;;34.00;25.50;;;;;2.07;67.48;99447.38;4995204;28;45533;-39
2024/01/17 01:55:24;;;;;;;;;30.50;25.00;;;;;2.05;69.18;99433.53;4994060;28;45670;-39
2024/01/17 01:57:50;;;;;;;;;36.50;30.50;;;;;2.01;69.17;99414.59;4994169;28;45394;-40
2024/01/17 02:00:17;;;;;;;;;35.00;24.00;;;;;2.09;69.77;99437.59;4994311;28;45432;-39
2024/01/17 02:02:44;;;;;;;;;24.75;24.50;;;;;2.14;69.63;99427.53;4994244;28;45428;-39
2024/01/17 02:05:10;;;;;;;;;27.00;21.00;;;;;2.17;69.57;99409.75;4994008;28;47497;-38
2024/01/17 02:07:37;;;;;;;;;27.50;20.75;;;;;2.25;69.13;99411.75;4993809;28;45321;-39
2024/01/17 02:10:04;;;;;;;;;32.75;25.75;;;;;2.27;69.43;99401.97;4993810;28;45409;-38
2024/01/17 02:12:30;;;;;;;;;35.00;29.50;;;;;2.30;69.79;99388.59;4994413;28;45396;-39
2024/01/17 02:14:56;;;;;;;;;32.00;18.00;;;;;2.28;67.60;99371.31;4993987;28;45482;-39
2024/01/17 02:17:22;;;;;;;;;32.50;26.25;;;;;2.32;68.04;99367.47;4993647;28;45391;-39
2024/01/17 02:19:47;;;;;;;;;37.50;25.50;;;;;2.28;69.03;99356.41;4993861;28;45288;-40
2024/01/17 02:22:12;;;;;;;;;33.75;27.50;;;;;2.29;69.23;99346.75;4994423;28;45430;-40
2024/01/17 02:24:38;;;;;;;;;41.00;25.50;;;;;2.30;68.66;99343.97;4994069;28;46298;-40
2024/01/17 02:27:03;;;;;;;;;39.50;25.00;;;;;2.29;69.95;99341.50;4994004;28;45298;-41
2024/01/17 02:29:29;;;;;;;;;26.25;20.75;;;;;2.23;69.32;99322.69;4993795;28;45284;-39
2024/01/17 02:31:55;;;;;;;;;35.75;27.25;;;;;2.25;71.16;99314.69;4993650;28;45779;-39
2024/01/17 02:34:20;;;;;;;;;28.25;28.25;;;;;2.28;69.54;99314.44;4993707;28;45233;-40
2024/01/17 02:36:46;;;;;;;;;36.75;28.75;;;;;2.29;69.62;99304.75;4994021;28;45301;-40
2024/01/17 02:39:11;;;;;;;;;36.25;25.75;;;;;2.27;70.44;99304.03;4993689;28;45223;-38
2024/01/17 02:41:37;;;;;;;;;31.00;27.25;;;;;2.29;70.89;99304.75;4993780;28;45502;-40
2024/01/17 02:44:02;;;;;;;;;39.50;31.00;;;;;2.23;71.54;99292.97;4993361;28;45440;-41
2024/01/17 02:46:29;;;;;;;;;33.00;25.00;;;;;2.17;72.27;99302.19;4993192;28;45396;-41
2024/01/17 02:48:54;;;;;;;;;33.50;30.00;;;;;2.12;72.39;99287.81;4993316;28;45411;-38
2024/01/17 02:51:19;;;;;;;;;30.25;25.75;;;;;2.20;72.39;99295.88;4993734;28;45337;-39
2024/01/17 02:53:45;;;;;;;;;20.75;18.00;;;;;2.17;69.59;99270.72;4993237;28;46516;-40
2024/01/17 02:56:10;;;;;;;;;29.75;23.00;;;;;2.22;70.40;99276.41;4993118;28;45350;-40
2024/01/17 02:58:36;;;;;;;;;36.25;30.75;;;;;2.23;72.83;99267.59;4993032;28;45325;-40
2024/01/17 03:01:01;;;;;;;;;30.50;24.75;;;;;2.29;72.22;99274.09;4992119;28;45490;-40
2024/01/17 03:03:26;;;;;;;;;31.75;28.00;;;;;2.32;72.92;99267.75;4992999;28;47207;-40
2024/01/17 03:05:52;;;;;;;;;30.75;27.75;;;;;2.27;72.04;99259.44;4992898;28;45399;-40
2024/01/17 03:08:17;;;;;;;;;34.50;31.00;;;;;2.26;73.16;99253.38;4993356;28;45471;-40
2024/01/17 03:10:42;;;;;;;;;32.25;22.00;;;;;2.36;72.60;99256.88;4993180;28;45327;-40
2024/01/17 03:13:08;;;;;;;;;29.25;26.75;;;;;2.28;72.83;99232.25;4992858;28;45274;-40
2024/01/17 03:15:34;;;;;;;;;30.75;21.75;;;;;2.38;72.61;99243.63;4994161;28;45251;-40
2024/01/17 03:18:00;;;;;;;;;26.25;22.50;;;;;2.35;73.02;99238.63;4992907;28;45374;-39
2024/01/17 03:20:25;;;;;;;;;30.25;25.50;;;;;2.38;73.74;99241.81;4993185;28;45421;-40
2024/01/17 03:22:53;;;;;;;;;35.75;28.50;;;;;2.37;73.67;99231.47;4992912;28;46317;-39
2024/01/17 03:25:19;;;;;;;;;46.00;26.75;;;;;2.40;73.94;99225.94;4992936;28;45388;-40
2024/01/17 03:27:44;;;;;;;;;42.00;31.25;;;;;2.42;74.38;99219.59;4992782;28;45279;-40
2024/01/17 03:30:10;;;;;;;;;47.75;29.50;;;;;2.44;74.33;99204.56;4992829;28;45408;-41
2024/01/17 03:32:35;;;;;;;;;37.75;27.00;;;;;2.46;73.45;99199.19;4994688;28;46150;-40
2024/01/17 03:35:01;;;;;;;;;40.25;25.75;;;;;2.48;72.20;99190.19;4995476;28;47987;-40
2024/01/17 03:37:27;;;;;;;;;16.25;13.75;;;;;2.47;70.54;99175.41;4995815;28;45440;-40
2024/01/17 03:39:52;;;;;;;;;32.75;27.75;;;;;2.40;72.99;99155.09;4994822;28;45450;-38
2024/01/17 03:42:17;;;;;;;;;33.50;24.50;;;;;2.48;72.76;99157.88;4996025;28;45350;-40
2024/01/17 03:44:44;;;;;;;;;30.00;22.25;;;;;2.44;73.56;99154.72;4995693;28;45297;-40
2024/01/17 03:47:11;;;;;;;;;31.25;31.00;;;;;2.40;74.73;99148.06;4995695;28;45182;-40
2024/01/17 03:49:36;;;;;;;;;25.50;21.00;;;;;2.42;72.07;99140.06;4995819;28;45391;-38
2024/01/17 03:52:02;;;;;;;;;39.75;25.50;;;;;2.42;73.71;99129.56;4995451;28;46439;-40
2024/01/17 03:54:27;;;;;;;;;45.00;32.25;;;;;2.41;74.80;99117.41;4995626;28;45417;-40
2024/01/17 03:56:53;;;;;;;;;41.00;25.00;;;;;2.41;73.98;99112.97;4995722;28;45464;-40
2024/01/17 03:59:18;;;;;;;;;38.25;28.50;;;;;2.38;74.32;99107.16;4995727;28;45458;-40
2024/01/17 04:01:44;;;;;;;;;35.50;28.00;;;;;2.40;75.32;99099.97;4995278;28;46060;-40
2024/01/17 04:04:10;;;;;;;;;36.00;27.00;;;;;2.12;73.87;99046.50;4995280;28;45510;-40
2024/01/17 04:06:35;;;;;;;;;36.75;29.00;;;;;2.45;74.49;99089.94;4995551;28;45364;-40
2024/01/17 04:09:01;;;;;;;;;32.75;23.00;;;;;2.47;74.27;99075.69;4995590;28;45399;-39
2024/01/17 04:11:26;;;;;;;;;33.75;30.75;;;;;2.48;75.99;99069.47;4995455;28;46350;-41
2024/01/17 04:13:51;;;;;;;;;34.50;30.25;;;;;2.46;74.95;99046.97;4995752;28;45626;-39
2024/01/17 04:16:17;;;;;;;;;36.50;27.50;;;;;2.54;75.03;99048.91;4995631;28;45433;-39
2024/01/17 04:18:43;;;;;;;;;35.75;26.75;;;;;2.58;75.51;99042.41;4995469;28;45570;-39
2024/01/17 04:21:09;;;;;;;;;38.75;28.00;;;;;2.57;75.13;99035.50;4995072;28;47195;-38
2024/01/17 04:23:34;;;;;;;;;36.50;26.75;;;;;2.53;75.66;99016.59;4995225;28;45669;-36
2024/01/17 04:25:59;;;;;;;;;26.50;25.00;;;;;2.55;73.15;99004.13;4995089;28;45600;-40
2024/01/17 04:28:25;;;;;;;;;37.00;26.75;;;;;2.55;73.91;98998.88;4995562;28;45314;-37
2024/01/17 04:30:50;;;;;;;;;37.00;28.25;;;;;2.50;75.31;98990.59;4995197;28;46944;-40
2024/01/17 04:33:16;;;;;;;;;29.50;23.50;;;;;2.55;73.60;98990.19;4995038;28;45348;-41
2024/01/17 04:35:41;;;;;;;;;27.75;26.50;;;;;2.55;75.65;98984.94;4995149;28;45362;-40
2024/01/17 04:38:07;;;;;;;;;36.50;31.25;;;;;2.53;76.72;98971.97;4995205;28;45310;-39
2024/01/17 04:40:32;;;;;;;;;31.75;25.00;;;;;2.52;76.02;98954.53;4994802;28;46045;-40
2024/01/17 04:42:57;;;;;;;;;33.25;28.25;;;;;2.53;76.87;98952.72;4994631;28;46169;-40
2024/01/17 04:45:23;;;;;;;;;32.00;26.25;;;;;2.59;76.21;98944.31;4995092;28;45379;-43
2024/01/17 04:47:48;;;;;;;;;34.00;28.25;;;;;2.61;76.23;98956.34;4995074;28;45423;-39
2024/01/17 04:50:13;;;;;;;;;24.75;21.50;;;;;2.64;74.41;98934.22;4994684;28;46914;-40
2024/01/17 04:52:39;;;;;;;;;39.75;24.75;;;;;2.64;76.22;98921.91;4994794;28;45402;-40
2024/01/17 04:55:05;;;;;;;;;29.25;26.75;;;;;2.62;76.25;98910.75;4995027;28;45311;-39
2024/01/17 04:57:31;;;;;;;;;32.75;25.00;;;;;2.65;75.69;98918.31;4995036;28;45484;-39
2024/01/17 04:59:56;;;;;;;;;33.50;27.25;;;;;2.63;76.35;98901.91;4994517;28;46113;-37
2024/01/17 05:02:21;;;;;;;;;34.50;22.50;;;;;2.66;77.03;98888.50;4994716;28;45401;-38
2024/01/17 05:04:47;;;;;;;;;32.75;25.25;;;;;2.71;76.00;98895.94;4994672;28;45358;-37
2024/01/17 05:07:12;;;;;;;;;33.75;27.50;;;;;2.71;75.83;98893.31;4993537;28;45299;-39
2024/01/17 05:09:38;;;;;;;;;34.50;28.00;;;;;2.68;77.26;98899.66;4994686;28;47324;-39
2024/01/17 05:12:04;;;;;;;;;34.00;28.25;;;;;2.72;77.52;98908.09;4994466;28;45398;-40
2024/01/17 05:14:29;;;;;;;;;32.50;24.50;;;;;2.66;77.75;98908.66;4994717;28;45256;-39
2024/01/17 05:16:55;;;;;;;;;28.00;18.00;;;;;2.69;77.03;98913.63;4994938;28;45272;-39
2024/01/17 05:19:20;;;;;;;;;40.25;28.50;;;;;2.68;77.78;98904.09;4994412;28;46646;-39
2024/01/17 05:21:46;;;;;;;;;34.50;30.25;;;;;2.67;77.75;98900.66;4994315;28;45357;-39
2024/01/17 05:24:11;;;;;;;;;34.25;30.25;;;;;2.70;78.45;98903.00;4994413;28;45611;-38
2024/01/17 05:26:36;;;;;;;;;29.75;23.75;;;;;2.69;78.67;98908.38;5009887;28;45251;-38
2024/01/17 05:29:02;;;;;;;;;28.25;24.00;;;;;2.68;78.59;98891.78;4994318;28;46286;-39
2024/01/17 05:31:27;;;;;;;;;42.75;34.25;;;;;2.68;78.58;98875.22;4994468;28;45342;-38
2024/01/17 05:33:52;;;;;;;;;31.00;23.75;;;;;2.71;78.23;98874.94;4994650;28;45769;-38
2024/01/17 05:36:18;;;;;;;;;34.25;23.75;;;;;2.70;77.34;98866.25;4994791;28;45385;-38
2024/01/17 05:38:43;;;;;;;;;21.00;18.75;;;;;2.75;77.18;98861.38;4994439;28;47071;-39
2024/01/17 05:41:09;;;;;;;;;30.00;25.25;;;;;2.78;77.59;98857.63;4994370;28;45401;-40
2024/01/17 05:43:34;;;;;;;;;17.50;15.75;;;;;2.78;77.11;98849.75;4994421;28;45357;-41
2024/01/17 05:45:59;;;;;;;;;26.75;21.50;;;;;2.76;76.98;98835.94;4994580;28;45337;-41
2024/01/17 05:48:25;;;;;;;;;24.50;22.50;;;;;2.80;77.59;98837.31;4993839;28;46371;-40
2024/01/17 05:50:51;;;;;;;;;28.00;22.50;;;;;2.83;77.29;98828.34;4994539;28;45480;-39
2024/01/17 05:53:16;;;;;;;;;32.25;24.00;;;;;2.69;77.09;98798.09;4994248;28;45432;-40
2024/01/17 05:55:42;;;;;;;;;29.25;28.50;;;;;2.78;78.43;98814.78;4993992;28;45377;-40
2024/01/17 05:58:09;;;;;;;;;37.25;29.00;;;;;2.79;77.55;98806.78;4994086;28;46134;-40
2024/01/17 06:00:34;;;;;;;;;19.25;15.50;;;;;2.80;77.40;98795.31;4994147;28;45424;-40
2024/01/17 06:03:00;;;;;;;;;37.25;25.75;;;;;2.79;78.42;98790.22;4994315;28;45299;-40
2024/01/17 06:05:25;;;;;;;;;30.25;22.00;;;;;2.80;76.72;98779.56;4994126;28;45302;-40
2024/01/17 06:07:51;;;;;;;;;28.25;19.00;;;;;2.79;77.00;98780.53;4993803;28;46089;-39
2024/01/17 06:10:17;;;;;;;;;28.75;26.00;;;;;2.79;77.76;98761.31;4994033;28;45337;-39
2024/01/17 06:12:42;;;;;;;;;24.75;20.75;;;;;2.81;78.31;98759.38;4994300;28;45508;-40
2024/01/17 06:15:09;;;;;;;;;22.75;21.50;;;;;2.82;78.32;98746.06;4994168;28;45495;-46
2024/01/17 06:17:35;;;;;;;;;24.50;20.75;;;;;2.84;76.30;98745.94;4994048;28;46236;-38
2024/01/17 06:20:00;;;;;;;;;20.00;15.75;;;;;2.84;77.08;98727.56;4993693;28;45228;-39
2024/01/17 06:22:26;;;;;;;;;24.00;19.75;;;;;2.82;79.21;98722.44;4994079;28;45332;-40
2024/01/17 06:24:51;;;;;;;;;33.00;26.00;;;;;2.84;79.39;98714.44;4994106;28;45421;-39
2024/01/17 06:27:17;;;;;;;;;26.75;21.50;;;;;2.86;79.28;98707.22;4993515;28;47013;-40
2024/01/17 06:29:44;;;;;;;;;25.25;21.25;;;;;2.80;78.62;98698.16;5008529;28;45376;-38
2024/01/17 06:32:10;;;;;;;;;23.50;23.00;;;;;2.85;79.64;98690.66;5078847;27;45402;-39
2024/01/17 06:34:36;;;;;;;;;26.50;24.75;;;;;2.88;80.22;98682.50;4993981;28;45345;-40
2024/01/17 06:37:01;;;;;;;;;23.75;19.00;;;;;2.91;80.79;98670.88;4993576;28;46524;-39
2024/01/17 06:39:26;;;;;;;;;30.25;23.00;;;;;2.95;80.12;98680.06;4993639;28;45338;-39
2024/01/17 06:41:52;;;;;;;;;23.50;16.00;;;;;2.99;80.63;98670.94;4993566;28;45437;-39
2024/01/17 06:44:18;;;;;;;;;28.00;18.25;;;;;2.92;78.73;98644.44;4993763;28;45329;-40
2024/01/17 06:46:43;;;;;;;;;28.00;21.00;;;;;3.00;80.13;98655.03;4993181;28;47503;-38
2024/01/17 06:49:08;;;;;;;;;26.00;17.75;;;;;3.04;81.30;98652.13;4992904;28;45376;-40
2024/01/17 06:51:34;;;;;;;;;23.50;19.00;;;;;3.06;80.71;98650.97;4993111;28;45397;-38
2024/01/17 06:53:59;;;;;;;;;25.75;19.75;;;;;3.03;79.78;98639.94;4993248;28;45310;-38
2024/01/17 06:56:24;;;;;;;;;23.00;22.00;;;;;3.05;81.24;98628.31;4992796;28;47515;-39
2024/01/17 06:58:50;;;;;;;;;25.75;16.00;;;;;3.07;78.89;98626.34;4992846;28;45311;-40
2024/01/17 07:01:15;;;;;;;;;20.75;15.00;;;;;3.04;77.88;98607.47;4993051;28;45336;-39
2024/01/17 07:03:41;;;;;;;;;22.25;18.25;;;;;2.98;78.62;98608.88;4992972;28;45461;-39
2024/01/17 07:06:07;;;;;;;;;23.25;21.25;;;;;3.07;78.45;98630.78;4994421;28;45485;-39
2024/01/17 07:08:32;;;;;;;;;18.00;16.00;;;;;3.03;80.97;98622.38;4996057;28;45220;-39
2024/01/17 07:10:58;;;;;;;;;28.25;23.75;;;;;3.06;81.26;98632.59;4995820;28;45398;-40
2024/01/17 07:13:23;;;;;;;;;28.00;19.25;;;;;3.06;81.62;98622.06;4996104;28;45291;-40
2024/01/17 07:15:49;;;;;;;;;33.00;20.00;;;;;2.95;82.49;98598.66;4995592;28;52966;-38
2024/01/17 07:18:14;;;;;;;;;19.50;18.75;;;;;3.09;82.02;98613.91;4994500;28;45428;-41
2024/01/17 07:20:39;;;;;;;;;25.25;19.00;;;;;3.16;81.70;98625.47;4995662;28;45369;-39
2024/01/17 07:23:05;;;;;;;;;27.00;19.50;;;;;3.20;81.08;98600.53;4995426;28;45306;-38
2024/01/17 07:25:31;;;;;;;;;22.50;19.25;;;;;3.22;81.01;98589.88;4995393;28;45992;-40
2024/01/17 07:27:56;;;;;;;;;23.50;18.75;;;;;3.21;80.88;98578.53;4995590;28;45312;-39
2024/01/17 07:30:21;;;;;;;;;26.25;24.50;;;;;3.27;81.30;98574.47;4995614;28;45243;-40
2024/01/17 07:32:47;;;;;;;;;27.75;20.00;;;;;3.26;80.52;98575.44;4996071;28;45367;-40
2024/01/17 07:35:13;;;;;;;;;28.75;20.25;;;;;3.23;81.18;98563.44;4995256;28;45337;-38
2024/01/17 07:37:39;;;;;;;;;26.50;26.00;;;;;3.30;82.32;98591.75;4995399;28;45352;-39
2024/01/17 07:40:05;;;;;;;;;23.25;19.75;;;;;3.30;81.15;98589.13;4995627;28;45451;-39
2024/01/17 07:42:30;;;;;;;;;33.00;22.50;;;;;3.27;80.55;98560.50;4995808;28;45502;-39
2024/01/17 07:44:56;;;;;;;;;20.00;17.00;;;;;3.28;79.66;98562.97;4995656;28;45704;-38
2024/01/17 07:47:21;;;;;;;;;21.25;19.25;;;;;3.29;79.61;98548.88;4995815;27;45362;-38
2024/01/17 07:49:47;;;;;;;;;24.00;18.25;;;;;3.29;80.04;98542.78;4995538;28;45497;-40
2024/01/17 07:52:12;;;;;;;;;16.75;16.75;;;;;3.25;80.73;98506.31;4996027;28;45287;-38
2024/01/17 07:54:38;;;;;;;;;20.00;18.50;;;;;3.28;80.61;98510.41;4995386;28;45281;-38
2024/01/17 07:57:04;;;;;;;;;24.00;18.25;;;;;3.29;80.14;98513.88;4995270;28;45453;-39
2024/01/17 07:59:30;;;;;;;;;20.25;18.75;;;;;3.25;81.78;98505.50;4995285;28;45330;-39
2024/01/17 08:01:55;;;;;;;;;16.50;13.25;;;;;3.29;79.77;98533.13;4995607;28;45326;-39
2024/01/17 08:04:21;;;;;;;;;24.25;15.75;;;;;3.28;82.18;98551.63;4995185;28;46287;-38
2024/01/17 08:06:46;;;;;;;;;21.50;16.75;;;;;3.23;82.31;98531.91;5009521;28;45368;-39
2024/01/17 08:09:21;;;;;;;;;22.50;15.75;;;;;3.18;82.30;98526.28;4995154;28;45343;-38
2024/01/17 08:11:47;;;;;;;;;19.00;17.50;;;;;3.25;81.82;98529.97;4995019;28;45264;-39
2024/01/17 08:14:13;;;;;;;;;19.75;17.00;;;;;3.29;83.08;98513.88;4994952;28;46013;-38
2024/01/17 08:16:38;;;;;;;;;30.75;22.50;;;;;3.31;82.27;98499.59;4993126;28;45466;-38
2024/01/17 08:19:05;;;;;;;;;20.75;17.25;;;;;3.33;83.79;98502.06;4994697;28;45300;-39
2024/01/17 08:21:31;;;;;;;;;16.50;11.50;;;;;3.34;82.00;98487.97;4995125;28;45176;-39
2024/01/17 08:23:56;;;;;;;;;17.25;14.00;;;;;3.29;81.16;98453.44;4994592;28;47444;-39
2024/01/17 08:26:21;;;;;;;;;17.75;15.25;;;;;3.30;81.17;98450.66;4994671;28;45315;-39
2024/01/17 08:28:47;;;;;;;;;17.75;14.00;;;;;3.34;80.94;98453.81;4995131;28;45318;-39
2024/01/17 08:31:13;;;;;;;;;23.00;18.50;;;;;3.32;81.40;98456.56;4995026;28;45390;-39
2024/01/17 08:33:39;;;;;;;;;20.25;17.00;;;;;3.33;82.04;98442.47;4994560;28;46215;-39
2024/01/17 08:36:07;;;;;;;;;17.00;15.75;;;;;3.31;82.03;98433.91;4994543;28;45357;-39
2024/01/17 08:38:32;;;;;;;;;14.50;14.25;;;;;3.31;83.13;98435.72;4994564;28;45419;-38
2024/01/17 08:40:57;;;;;;;;;18.75;15.00;;;;;3.08;81.32;98403.94;4993412;28;46337;-40
2024/01/17 08:43:22;;;;;;;;;20.75;12.00;;;;;3.24;83.86;98420.59;4994921;28;46159;-43
2024/01/17 08:45:48;;;;;;;;;21.50;14.75;;;;;3.30;83.74;98413.88;4994644;28;45406;-39
2024/01/17 08:48:13;;;;;;;;;19.00;14.50;;;;;3.38;83.53;98411.28;4994167;28;46137;-39
2024/01/17 08:50:39;;;;;;;;;16.50;14.25;;;;;3.37;83.66;98396.50;4994370;28;45468;-38
2024/01/17 08:53:05;;;;;;;;;18.00;12.75;;;;;3.41;84.85;98389.09;4994398;28;45333;-39
2024/01/17 08:55:31;;;;;;;;;22.25;17.25;;;;;3.42;83.24;98391.59;4994409;28;45334;-39
2024/01/17 08:57:57;;;;;;;;;16.00;14.75;;;;;3.46;84.19;98398.19;4994580;28;45382;-40
2024/01/17 09:00:22;;;;;;;;;16.75;11.75;;;;;3.52;85.11;98377.50;5009956;28;45614;-40
2024/01/17 09:02:47;;;;;;;;;17.75;15.00;;;;;3.55;83.12;98374.56;4994229;28;46231;-39
2024/01/17 09:05:13;;;;;;;;;19.50;14.00;;;;;3.56;83.88;98357.78;4994323;28;45347;-39
2024/01/17 09:07:39;;;;;;;;;16.00;15.50;;;;;3.62;84.14;98370.28;4994355;28;45786;-45
2024/01/17 09:10:04;;;;;;;;;19.50;16.50;;;;;3.64;83.77;98366.53;4994455;28;45311;-40
2024/01/17 09:12:30;;;;;;;;;27.00;12.25;;;;;3.64;84.46;98361.25;4994211;28;46376;-37
2024/01/17 09:14:55;;;;;;;;;15.00;10.50;;;;;3.70;84.70;98351.91;4994081;28;45277;-39
2024/01/17 09:17:20;;;;;;;;;17.75;10.50;;;;;3.74;84.83;98350.59;4994864;28;45290;-40
2024/01/17 09:19:46;;;;;;;;;13.75;10.50;;;;;3.77;83.42;98336.31;4994436;28;45346;-39
2024/01/17 09:22:12;;;;;;;;;16.00;14.25;;;;;3.77;83.78;98331.88;4993791;28;45317;-40
2024/01/17 09:24:39;;;;;;;;;10.25;9.50;;;;;3.82;84.22;98342.72;4994358;28;45327;-41
2024/01/17 09:27:04;;;;;;;;;14.50;11.50;;;;;3.84;83.73;98332.88;4994282;28;45621;-40
2024/01/17 09:29:33;;;;;;;;;9.50;9.50;;;;;3.88;84.13;98330.75;4993164;28;45388;-40
2024/01/17 09:31:59;;;;;;;;;16.00;11.00;;;;;3.87;84.99;98329.06;4993954;28;45487;-39
2024/01/17 09:34:24;;;;;;;;;10.50;8.25;;;;;3.91;83.81;98325.94;4994167;28;45383;-40
2024/01/17 09:36:50;;;;;;;;;11.00;8.50;;;;;3.91;83.19;98304.91;4994548;28;45341;-40
2024/01/17 09:39:15;;;;;;;;;11.25;9.00;;;;;3.91;84.46;98309.34;4994567;28;45402;-40
2024/01/17 09:41:41;;;;;;;;;9.50;7.00;;;;;3.94;84.99;98307.22;4994142;28;45469;-37
2024/01/17 09:44:07;;;;;;;;;18.75;10.00;;;;;3.93;85.22;98305.59;4994095;28;45387;-39
2024/01/17 09:46:36;;;;;;;;;11.50;11.00;;;;;3.98;85.07;98310.34;4993993;28;45522;-39
2024/01/17 09:49:02;;;;;;;;;11.50;10.50;;;;;3.95;84.91;98308.84;4994306;28;45464;-39
2024/01/17 09:51:31;;;;;;;;;13.00;10.75;;;;;4.04;85.57;98312.31;4993697;28;45462;-40
2024/01/17 09:53:59;;;;;;;;;10.00;7.00;;;;;4.06;83.23;98302.47;4992420;28;45426;-40
2024/01/17 09:56:28;;;;;;;;;11.25;10.75;;;;;4.13;85.68;98300.81;4994121;28;45496;-40
2024/01/17 09:58:55;;;;;;;;;19.00;14.50;;;;;4.10;84.56;98290.63;4994112;28;45335;-40
2024/01/17 10:01:22;;;;;;;;;20.50;14.00;;;;;4.19;85.43;98302.78;4993949;28;46474;-40
2024/01/17 10:03:51;;;;;;;;;16.00;14.00;;;;;4.25;85.41;98302.09;4993890;28;45318;-40
2024/01/17 10:06:17;;;;;;;;;17.25;13.00;;;;;4.27;84.84;98294.06;4993545;28;45433;-39
2024/01/17 10:08:46;;;;;;;;;10.50;8.50;;;;;4.29;86.05;98297.34;4994038;28;45360;-41
2024/01/17 10:11:13;;;;;;;;;37.75;31.75;;;;;4.30;85.45;98285.84;4993057;28;45409;-39
2024/01/17 10:13:38;;;;;;;;;24.25;17.00;;;;;4.22;85.01;98267.44;4993619;28;45354;-41
2024/01/17 10:16:04;;;;;;;;;14.25;14.00;;;;;4.25;85.49;98275.78;5008877;28;45485;-40
2024/01/17 10:18:31;;;;;;;;;16.50;14.00;;;;;4.35;85.20;98265.09;4994058;28;45401;-41
2024/01/17 10:20:57;;;;;;;;;25.50;16.50;;;;;4.33;84.57;98258.34;4993444;28;47145;-39
2024/01/17 10:23:24;;;;;;;;;18.25;14.50;;;;;4.33;85.53;98274.13;4993164;28;45385;-39
2024/01/17 10:25:51;;;;;;;;;22.00;14.00;;;;;4.38;84.92;98227.91;4993697;28;45326;-39
2024/01/17 10:28:16;;;;;;;;;13.75;11.25;;;;;4.40;84.44;98240.91;4992275;28;45612;-38
2024/01/17 10:30:42;;;;;;;;;20.25;16.00;;;;;4.38;84.61;98238.44;4993495;28;45593;-39
2024/01/17 10:33:08;;;;;;;;;18.00;15.00;;;;;4.37;84.32;98228.06;4993650;28;45409;-40
2024/01/17 10:35:34;;;;;;;;;15.50;12.50;;;;;4.38;84.28;98220.03;4993671;28;45334;-38
2024/01/17 10:38:00;;;;;;;;;18.50;14.00;;;;;4.36;84.60;98197.47;4993471;28;45500;-39
2024/01/17 10:40:25;;;;;;;;;17.75;14.50;;;;;4.39;85.85;98199.78;4992817;28;46143;-39
2024/01/17 10:43:09;;;;;;;;;18.75;15.00;;;;;4.39;85.93;98199.78;4993496;28;45388;-39
2024/01/17 10:45:36;;;;;;;;;13.75;10.75;;;;;4.38;86.57;98203.38;4993522;28;45478;-40
2024/01/17 10:48:02;;;;;;;;;24.00;18.25;;;;;4.40;86.29;98188.25;4993519;28;45822;-39
2024/01/17 10:50:28;;;;;;;;;17.25;15.75;;;;;4.40;86.75;98194.34;4993202;28;45326;-40
2024/01/17 10:53:00;;;;;;;;;16.50;13.75;;;;;4.43;86.43;98187.94;4993068;28;45468;-38
2024/01/17 10:55:29;;;;;;;;;20.75;15.75;;;;;4.42;86.72;98187.09;4993351;28;45333;-40
2024/01/17 10:57:59;;;;;;;;;20.25;14.00;;;;;4.41;85.39;98171.47;4993492;28;45572;-40
2024/01/17 11:00:31;;;;;;;;;20.00;14.00;;;;;4.34;86.51;98165.22;4992836;27;46659;-39
2024/01/17 11:02:58;;;;;;;;;16.25;13.25;;;;;4.46;87.76;98169.13;4993064;28;45503;-39
2024/01/17 11:05:30;;;;;;;;;20.75;15.50;;;;;4.49;88.00;98174.06;4993211;28;45474;-39
2024/01/17 11:07:58;;;;;;;;;22.75;15.00;;;;;4.52;87.66;98184.28;4992994;28;45482;-38
2024/01/17 11:10:25;;;;;;;;;17.00;12.00;;;;;4.52;87.41;98183.44;4991932;28;46292;-39
2024/01/17 11:12:52;;;;;;;;;20.00;12.50;;;;;4.60;87.46;98186.88;4992837;28;45380;-39
2024/01/17 11:15:19;;;;;;;;;21.50;18.25;;;;;4.64;88.11;98161.03;4992873;28;45364;-40
2024/01/17 11:17:45;;;;;;;;;23.00;19.00;;;;;4.66;88.13;98161.66;4993048;28;45304;-39
2024/01/17 11:20:12;;;;;;;;;19.75;17.50;;;;;4.72;88.40;98148.63;4992476;28;46558;-38